Voyager III — VK2800 — position and weather

sailwx.info

Track history (hours):
 
Tides and Currents Weather Stations Pressure Air Temp Water Temp Dewpoint Dewpoint Depression Visibility Wind Speed Wind Dir Waves Ship Positions

Voyager III

Last reported at 2018-Jun-13 18:16 UTC. Time now 2018-Jun-22 20:38 UTC.
Position S 22°17' E 166°26'.
Warning: this ship's position is 9 days out of date.

Length 25 m; draft 2.5 m.

Type: Ship. MMSI: 552314753.

Date/timePositionNaut miles runAvg speedWind from/ knotsBaromVisibWave heightAir tempDewpointWater temp
2018-Jun-13 18:16S 22°17' E 166°26'0 0.0
2018-Jun-13 17:58S 22°17' E 166°26'0 0.0
2018-Jun-13 17:30S 22°17' E 166°26'0 0.0
2018-Jun-13 16:59S 22°17' E 166°26'0 0.0
2018-Jun-13 16:24S 22°17' E 166°26'0 0.0
2018-Jun-13 15:59S 22°17' E 166°26'0 0.0
2018-Jun-13 15:28S 22°17' E 166°26'0 0.0
2018-Jun-13 15:00S 22°17' E 166°26'0 0.0
2018-Jun-13 14:28S 22°17' E 166°26'0 0.0
2018-Jun-13 14:00S 22°17' E 166°26'0 0.0
2018-Jun-13 13:18S 22°17' E 166°26'0 0.0
2018-Jun-13 12:53S 22°17' E 166°26'0 0.0
2018-Jun-13 12:30S 22°17' E 166°26'0 0.0
2018-Jun-13 12:00S 22°17' E 166°26'0 0.0
2018-Jun-13 11:26S 22°17' E 166°26'0 0.0
2018-Jun-13 11:00S 22°17' E 166°26'0 0.0
2018-Jun-13 10:30S 22°17' E 166°26'0 0.0
2018-Jun-13 10:00S 22°17' E 166°26'0 0.0
2018-Jun-13 09:28S 22°17' E 166°26'0 0.0
2018-Jun-13 09:00S 22°17' E 166°26'0 0.0
2018-Jun-13 08:30S 22°17' E 166°26'0 0.0
2018-Jun-13 07:57S 22°17' E 166°26'0 0.0
2018-Jun-13 07:30S 22°17' E 166°26'  
2018-Jun-08 05:49S 27°52' E 153°37'2 7.5
2018-Jun-08 05:30S 27°53' E 153°34'4 7.5
2018-Jun-08 05:00S 27°55' E 153°30'4 7.3
2018-Jun-08 04:30S 27°56' E 153°27'2 4.6
2018-Jun-08 04:00S 27°58' E 153°25'0 0.2
2018-Jun-08 03:07S 27°58' E 153°26'0 0.0
2018-Jun-08 02:13S 27°58' E 153°26'0 0.0
2018-Jun-08 01:58S 27°58' E 153°26'0 0.0
2018-Jun-08 01:23S 27°58' E 153°26'0 0.2
2018-Jun-08 00:17S 27°58' E 153°25'0 0.4
2018-Jun-07 23:49S 27°58' E 153°26'0 0.0
2018-Jun-07 23:28S 27°58' E 153°26'0 0.0
2018-Jun-07 23:00S 27°58' E 153°26'0 0.1
2018-Jun-07 22:18S 27°58' E 153°26'0 0.0
2018-Jun-07 21:58S 27°58' E 153°26'0 0.0
2018-Jun-07 21:19S 27°58' E 153°26'0 0.0
2018-Jun-07 20:53S 27°58' E 153°26'0 0.0
2018-Jun-07 20:29S 27°58' E 153°26'0 0.0
2018-Jun-07 19:59S 27°58' E 153°26'0 0.0
2018-Jun-07 19:29S 27°58' E 153°26'0 0.0
2018-Jun-07 18:58S 27°58' E 153°26'0 0.0
2018-Jun-07 18:29S 27°58' E 153°26'0 0.0
2018-Jun-07 17:54S 27°58' E 153°26'0 0.0
2018-Jun-07 17:27S 27°58' E 153°26'0 0.0
2018-Jun-07 16:55S 27°58' E 153°26'0 0.0
2018-Jun-07 16:30S 27°58' E 153°26'0 0.0
2018-Jun-07 15:59S 27°58' E 153°26'0 0.0
2018-Jun-07 15:25S 27°58' E 153°26'0 0.0
2018-Jun-07 10:54S 27°58' E 153°26'0 0.0
2018-Jun-07 09:46S 27°58' E 153°26'0 0.0
2018-Jun-07 07:52S 27°58' E 153°26'0 0.0
2018-Jun-07 07:30S 27°58' E 153°26'0 0.0
2018-Jun-07 06:56S 27°58' E 153°26'0 0.0
2018-Jun-07 06:28S 27°58' E 153°26'0 0.0
2018-Jun-07 05:59S 27°58' E 153°26'0 0.0
2018-Jun-07 05:29S 27°58' E 153°26'0 0.0
2018-Jun-07 04:59S 27°58' E 153°26'0 0.0
2018-Jun-07 04:18S 27°58' E 153°26'  
Track history (hours):
 
Tides and Currents Weather Stations Pressure Air Temp Water Temp Dewpoint Dewpoint Depression Visibility Wind Speed Wind Dir Waves Ship Positions

Voyager III

Last reported at 2018-Jun-13 18:16 UTC. Time now 2018-Jun-22 20:38 UTC.
Position S 22°17' E 166°26'.
Warning: this ship's position is 9 days out of date.

Length 25 m; draft 2.5 m.

Type: Ship. MMSI: 552314753.

Date/timePositionNaut miles runAvg speedWind from/ knotsBaromVisibWave heightAir tempDewpointWater temp
2018-Jun-13 18:16S 22°17' E 166°26'0 0.0
2018-Jun-13 17:58S 22°17' E 166°26'0 0.0
2018-Jun-13 17:30S 22°17' E 166°26'0 0.0
2018-Jun-13 16:59S 22°17' E 166°26'0 0.0
2018-Jun-13 16:24S 22°17' E 166°26'0 0.0
2018-Jun-13 15:59S 22°17' E 166°26'0 0.0
2018-Jun-13 15:28S 22°17' E 166°26'0 0.0
2018-Jun-13 15:00S 22°17' E 166°26'0 0.0
2018-Jun-13 14:28S 22°17' E 166°26'0 0.0
2018-Jun-13 14:00S 22°17' E 166°26'0 0.0
2018-Jun-13 13:18S 22°17' E 166°26'0 0.0
2018-Jun-13 12:53S 22°17' E 166°26'0 0.0
2018-Jun-13 12:30S 22°17' E 166°26'0 0.0
2018-Jun-13 12:00S 22°17' E 166°26'0 0.0
2018-Jun-13 11:26S 22°17' E 166°26'0 0.0
2018-Jun-13 11:00S 22°17' E 166°26'0 0.0
2018-Jun-13 10:30S 22°17' E 166°26'0 0.0
2018-Jun-13 10:00S 22°17' E 166°26'0 0.0
2018-Jun-13 09:28S 22°17' E 166°26'0 0.0
2018-Jun-13 09:00S 22°17' E 166°26'0 0.0
2018-Jun-13 08:30S 22°17' E 166°26'0 0.0
2018-Jun-13 07:57S 22°17' E 166°26'0 0.0
2018-Jun-13 07:30S 22°17' E 166°26'  
2018-Jun-08 05:49S 27°52' E 153°37'2 7.5
2018-Jun-08 05:30S 27°53' E 153°34'4 7.5
2018-Jun-08 05:00S 27°55' E 153°30'4 7.3
2018-Jun-08 04:30S 27°56' E 153°27'2 4.6
2018-Jun-08 04:00S 27°58' E 153°25'0 0.2
2018-Jun-08 03:07S 27°58' E 153°26'0 0.0
2018-Jun-08 02:13S 27°58' E 153°26'0 0.0
2018-Jun-08 01:58S 27°58' E 153°26'0 0.0
2018-Jun-08 01:23S 27°58' E 153°26'0 0.2
2018-Jun-08 00:17S 27°58' E 153°25'0 0.4
2018-Jun-07 23:49S 27°58' E 153°26'0 0.0
2018-Jun-07 23:28S 27°58' E 153°26'0 0.0
2018-Jun-07 23:00S 27°58' E 153°26'0 0.1
2018-Jun-07 22:18S 27°58' E 153°26'0 0.0
2018-Jun-07 21:58S 27°58' E 153°26'0 0.0
2018-Jun-07 21:19S 27°58' E 153°26'0 0.0
2018-Jun-07 20:53S 27°58' E 153°26'0 0.0
2018-Jun-07 20:29S 27°58' E 153°26'0 0.0
2018-Jun-07 19:59S 27°58' E 153°26'0 0.0
2018-Jun-07 19:29S 27°58' E 153°26'0 0.0
2018-Jun-07 18:58S 27°58' E 153°26'0 0.0
2018-Jun-07 18:29S 27°58' E 153°26'0 0.0
2018-Jun-07 17:54S 27°58' E 153°26'0 0.0
2018-Jun-07 17:27S 27°58' E 153°26'0 0.0
2018-Jun-07 16:55S 27°58' E 153°26'0 0.0
2018-Jun-07 16:30S 27°58' E 153°26'0 0.0
2018-Jun-07 15:59S 27°58' E 153°26'0 0.0
2018-Jun-07 15:25S 27°58' E 153°26'0 0.0
2018-Jun-07 10:54S 27°58' E 153°26'0 0.0
2018-Jun-07 09:46S 27°58' E 153°26'0 0.0
2018-Jun-07 07:52S 27°58' E 153°26'0 0.0
2018-Jun-07 07:30S 27°58' E 153°26'0 0.0
2018-Jun-07 06:56S 27°58' E 153°26'0 0.0
2018-Jun-07 06:28S 27°58' E 153°26'0 0.0
2018-Jun-07 05:59S 27°58' E 153°26'0 0.0
2018-Jun-07 05:29S 27°58' E 153°26'0 0.0
2018-Jun-07 04:59S 27°58' E 153°26'0 0.0
2018-Jun-07 04:18S 27°58' E 153°26'  

Dump ship's entire track history